createdAt,value
2022-12-23T00:01:50.564Z,21.17
2022-12-23T00:04:17.300Z,25.97
2022-12-23T00:06:44.110Z,21.47
2022-12-23T00:09:10.729Z,23.77
2022-12-23T00:11:37.385Z,23.53
2022-12-23T00:14:22.800Z,20.57
2022-12-23T00:16:51.162Z,16.60
2022-12-23T00:19:18.220Z,16.67
2022-12-23T00:21:45.085Z,16.43
2022-12-23T00:24:12.198Z,16.13
2022-12-23T00:26:38.752Z,14.47
2022-12-23T00:29:05.360Z,15.40
2022-12-23T00:31:32.019Z,16.33
2022-12-23T00:33:58.929Z,13.03
2022-12-23T00:36:28.249Z,12.40
2022-12-23T00:39:15.069Z,11.85
2022-12-23T00:42:00.746Z,14.70
2022-12-23T00:44:27.437Z,14.67
2022-12-23T00:46:54.210Z,11.47
2022-12-23T00:49:40.242Z,11.23
2022-12-23T00:52:09.322Z,9.57
2022-12-23T00:54:36.186Z,10.57
2022-12-23T00:57:03.451Z,10.07
2022-12-23T00:59:30.109Z,8.40
2022-12-23T01:02:15.472Z,7.53
2022-12-23T01:05:01.681Z,8.47
2022-12-23T01:07:28.251Z,7.23
2022-12-23T01:09:54.800Z,7.20
2022-12-23T01:12:21.548Z,7.83
2022-12-23T01:14:48.660Z,8.53
2022-12-23T01:17:15.827Z,7.17
2022-12-23T01:19:42.557Z,7.20
2022-12-23T01:22:09.322Z,8.77
2022-12-23T01:24:35.868Z,8.13
2022-12-23T01:27:02.456Z,8.10
2022-12-23T01:29:29.992Z,7.73
2022-12-23T01:31:56.599Z,8.63
2022-12-23T01:34:23.166Z,8.33
2022-12-23T01:36:49.801Z,9.47
2022-12-23T01:39:16.378Z,11.13
2022-12-23T01:42:01.672Z,9.73
2022-12-23T01:44:57.832Z,8.77
2022-12-23T01:47:24.300Z,11.90
2022-12-23T01:49:55.545Z,12.37
2022-12-23T01:52:22.661Z,11.17
2022-12-23T01:54:49.597Z,12.87
2022-12-23T01:57:16.253Z,10.97
2022-12-23T02:00:03.352Z,14.30
2022-12-23T02:02:50.655Z,12.70
2022-12-23T02:05:17.758Z,10.23
2022-12-23T02:08:03.455Z,12.03
2022-12-23T02:10:43.912Z,13.30
2022-12-23T02:13:36.676Z,13.53
2022-12-23T02:16:17.958Z,14.10
2022-12-23T02:19:02.616Z,17.20
2022-12-23T02:21:44.147Z,15.17
2022-12-23T02:24:16.653Z,13.77
2022-12-23T02:27:09.104Z,14.53
2022-12-23T02:30:00.366Z,13.30
2022-12-23T02:32:45.646Z,11.90
2022-12-23T02:35:50.396Z,14.03
2022-12-23T02:38:26.749Z,13.60
2022-12-23T02:41:12.863Z,16.33
2022-12-23T02:43:57.346Z,13.70
2022-12-23T02:46:38.575Z,15.37
2022-12-23T02:49:12.836Z,15.60
2022-12-23T02:51:47.274Z,16.77
2022-12-23T02:54:18.728Z,14.20
2022-12-23T02:56:50.663Z,14.53
2022-12-23T02:59:24.336Z,13.90
2022-12-23T03:01:53.270Z,13.43
2022-12-23T03:04:20.063Z,13.17
2022-12-23T03:06:51.375Z,13.63
2022-12-23T03:09:30.912Z,11.93
2022-12-23T03:12:29.731Z,10.98
2022-12-23T03:15:08.805Z,10.67
2022-12-23T03:17:41.059Z,10.57
2022-12-23T03:20:26.429Z,8.97
2022-12-23T03:23:04.351Z,11.83
2022-12-23T03:25:35.929Z,8.80
2022-12-23T03:28:10.400Z,11.70
2022-12-23T03:30:39.187Z,9.93
2022-12-23T03:33:09.448Z,10.77
2022-12-23T03:35:45.461Z,10.23
2022-12-23T03:38:15.168Z,9.93
2022-12-23T03:40:45.384Z,11.18
2022-12-23T03:45:51.533Z,11.93
2022-12-23T03:48:27.487Z,9.67
2022-12-23T03:50:58.608Z,10.33
2022-12-23T03:53:33.559Z,10.73
2022-12-23T03:56:09.319Z,11.50
2022-12-23T03:58:53.876Z,12.60
2022-12-23T04:01:29.493Z,12.37
2022-12-23T04:04:11.502Z,10.33
2022-12-23T04:06:52.056Z,8.47
2022-12-23T04:09:22.424Z,10.93
2022-12-23T04:11:49.667Z,8.17
2022-12-23T04:14:20.993Z,10.67
2022-12-23T04:16:49.227Z,8.27
2022-12-23T04:19:16.064Z,8.20
2022-12-23T04:21:42.699Z,8.50
2022-12-23T04:24:09.358Z,9.03
2022-12-23T04:26:36.007Z,9.63
2022-12-23T04:29:02.656Z,9.03
2022-12-23T04:31:29.290Z,10.93
2022-12-23T04:33:55.847Z,7.83
2022-12-23T04:36:22.455Z,27.37
2022-12-23T04:38:49.063Z,10.43
2022-12-23T04:41:15.706Z,8.70
2022-12-23T04:43:43.663Z,9.57
2022-12-23T04:46:13.160Z,9.40
2022-12-23T04:48:39.787Z,9.70
2022-12-23T04:51:06.464Z,11.43
2022-12-23T04:53:33.177Z,14.10
2022-12-23T04:55:59.815Z,12.23
2022-12-23T04:58:26.404Z,10.90
2022-12-23T05:01:04.289Z,13.60
2022-12-23T05:03:31.204Z,15.87
2022-12-23T05:05:57.802Z,11.77
2022-12-23T05:08:24.423Z,11.83
2022-12-23T05:10:51.061Z,14.83
2022-12-23T05:13:17.815Z,12.73
2022-12-23T05:15:45.993Z,12.13
2022-12-23T05:18:12.803Z,11.90
2022-12-23T05:20:39.433Z,51.53
2022-12-23T05:23:06.205Z,15.20
2022-12-23T05:25:34.388Z,11.40
2022-12-23T05:28:01.085Z,10.13
2022-12-23T05:30:27.940Z,11.00
2022-12-23T05:32:55.908Z,9.07
2022-12-23T05:35:26.288Z,7.57
2022-12-23T05:40:23.847Z,16.03
2022-12-23T05:42:54.755Z,14.83
2022-12-23T05:45:22.770Z,11.87
2022-12-23T05:47:50.391Z,11.67
2022-12-23T05:50:17.033Z,10.07
2022-12-23T05:52:43.797Z,16.70
2022-12-23T05:55:10.620Z,17.93
2022-12-23T05:57:37.294Z,24.43
2022-12-23T06:00:04.634Z,23.93
2022-12-23T06:02:31.429Z,33.27
2022-12-23T06:04:58.351Z,33.57
2022-12-23T06:07:24.912Z,43.40
2022-12-23T06:09:53.480Z,34.57
2022-12-23T06:12:20.046Z,24.17
2022-12-23T06:14:46.809Z,18.60
2022-12-23T06:17:13.364Z,17.37
2022-12-23T06:19:39.954Z,17.53
2022-12-23T06:22:06.591Z,21.73
2022-12-23T06:24:33.144Z,19.10
2022-12-23T06:26:59.737Z,52.07
2022-12-23T06:29:26.395Z,80.00
2022-12-23T06:31:53.265Z,46.93
2022-12-23T06:34:19.846Z,57.17
2022-12-23T06:36:46.679Z,56.73
2022-12-23T06:39:13.620Z,47.50
2022-12-23T06:41:40.477Z,37.47
2022-12-23T06:44:07.114Z,69.57
2022-12-23T06:46:34.104Z,37.70
2022-12-23T06:49:00.730Z,45.00
2022-12-23T06:51:27.375Z,44.90
2022-12-23T06:53:53.959Z,49.83
2022-12-23T06:56:20.856Z,96.67
2022-12-23T06:58:47.671Z,67.97
2022-12-23T07:01:14.316Z,46.53
2022-12-23T07:03:41.436Z,58.93
2022-12-23T07:06:08.466Z,66.93
2022-12-23T07:08:35.157Z,39.43
2022-12-23T07:11:03.551Z,62.90
2022-12-23T07:13:31.089Z,60.83
2022-12-23T07:15:58.035Z,47.77
2022-12-23T07:18:25.787Z,50.87
2022-12-23T07:20:54.408Z,45.07
2022-12-23T07:23:21.053Z,46.20
2022-12-23T07:25:48.160Z,41.67
2022-12-23T07:28:14.703Z,30.50
2022-12-23T07:30:41.271Z,37.10
2022-12-23T07:33:08.222Z,33.47
2022-12-23T07:35:35.012Z,38.00
2022-12-23T07:38:01.830Z,38.50
2022-12-23T07:40:28.607Z,33.00
2022-12-23T07:42:57.718Z,41.93
2022-12-23T07:45:25.923Z,34.43
2022-12-23T07:47:57.065Z,37.13
2022-12-23T07:50:24.229Z,34.77
2022-12-23T07:52:52.497Z,30.83
2022-12-23T07:55:20.429Z,24.07
2022-12-23T07:57:51.233Z,28.83
2022-12-23T08:00:19.678Z,20.17
2022-12-23T08:02:47.276Z,23.70
2022-12-23T08:05:15.129Z,20.10
2022-12-23T08:07:42.368Z,20.67
2022-12-23T08:10:09.845Z,18.13
2022-12-23T08:12:36.515Z,19.80
2022-12-23T08:15:03.388Z,24.70
2022-12-23T08:17:30.927Z,23.80
2022-12-23T08:19:57.641Z,21.97
2022-12-23T08:22:24.834Z,15.33
2022-12-23T08:24:52.735Z,14.67
2022-12-23T08:27:19.759Z,13.13
2022-12-23T08:29:46.366Z,14.93
2022-12-23T08:32:13.115Z,19.53
2022-12-23T08:34:39.767Z,18.20
2022-12-23T08:37:06.605Z,18.47
2022-12-23T08:39:33.196Z,15.43
2022-12-23T08:41:59.802Z,14.83
2022-12-23T08:44:28.089Z,13.50
2022-12-23T08:46:55.656Z,14.60
2022-12-23T08:49:22.646Z,11.97
2022-12-23T08:51:49.379Z,12.27
2022-12-23T08:54:16.121Z,14.20
2022-12-23T08:56:43.017Z,13.07
2022-12-23T08:59:19.189Z,12.97
2022-12-23T09:01:48.011Z,12.10
2022-12-23T09:04:15.157Z,9.77
2022-12-23T09:06:42.998Z,12.03
2022-12-23T09:09:14.679Z,11.63
2022-12-23T09:11:41.958Z,11.27
2022-12-23T09:14:10.310Z,10.50
2022-12-23T09:16:37.668Z,8.93
2022-12-23T09:19:04.992Z,9.10
2022-12-23T09:21:31.885Z,10.60
2022-12-23T09:23:58.980Z,11.17
2022-12-23T09:26:27.891Z,10.13
2022-12-23T09:28:55.305Z,9.63
2022-12-23T09:31:22.836Z,7.77
2022-12-23T09:33:51.561Z,7.80
2022-12-23T09:36:18.969Z,9.13
2022-12-23T09:38:46.705Z,7.37
2022-12-23T09:41:16.005Z,6.93
2022-12-23T09:44:07.186Z,6.93
2022-12-23T09:46:38.875Z,7.43
2022-12-23T09:49:17.693Z,9.07
2022-12-23T09:51:46.988Z,8.80
2022-12-23T09:54:21.218Z,9.30
2022-12-23T09:56:59.176Z,8.37
2022-12-23T09:59:44.463Z,10.47
2022-12-23T10:02:22.667Z,10.43
2022-12-23T10:05:17.105Z,10.73
2022-12-23T10:08:08.314Z,9.47
2022-12-23T10:11:01.953Z,9.30
2022-12-23T10:13:42.142Z,12.03
2022-12-23T10:16:15.878Z,8.60
2022-12-23T10:19:02.014Z,8.13
2022-12-23T10:21:35.398Z,8.73
2022-12-23T10:24:11.063Z,9.23
2022-12-23T10:26:53.261Z,8.23
2022-12-23T10:29:25.262Z,7.57
2022-12-23T10:32:25.362Z,9.53
2022-12-23T10:34:59.045Z,6.83
2022-12-23T10:37:34.584Z,9.03
2022-12-23T10:40:38.338Z,7.00
2022-12-23T10:43:17.100Z,7.97
2022-12-23T10:45:52.727Z,7.90
2022-12-23T10:48:48.537Z,7.47
2022-12-23T10:51:38.812Z,6.73
2022-12-23T10:54:26.827Z,8.40
2022-12-23T10:56:54.348Z,6.90
2022-12-23T10:59:26.481Z,7.20
2022-12-23T11:02:02.272Z,9.00
2022-12-23T11:04:39.403Z,12.83
2022-12-23T11:07:42.969Z,11.10
2022-12-23T11:10:00.656Z,10.25
2022-12-23T11:12:52.618Z,7.73
2022-12-23T11:15:40.274Z,7.40
2022-12-23T11:18:19.496Z,8.77
2022-12-23T11:21:02.784Z,10.47
2022-12-23T11:23:32.673Z,8.10
2022-12-23T11:28:32.260Z,9.10
2022-12-23T11:31:09.751Z,10.03
2022-12-23T11:33:39.909Z,11.03
2022-12-23T11:36:13.701Z,10.83
2022-12-23T11:39:20.534Z,10.00
2022-12-23T11:41:49.523Z,11.43
2022-12-23T11:44:38.347Z,11.93
2022-12-23T11:47:29.194Z,15.27
2022-12-23T11:49:59.198Z,13.37
2022-12-23T11:55:23.146Z,15.17
2022-12-23T11:57:51.109Z,16.30
2022-12-23T12:00:25.197Z,15.07
2022-12-23T12:02:58.724Z,15.60
2022-12-23T12:05:37.384Z,15.70
2022-12-23T12:08:09.982Z,14.97
2022-12-23T12:10:39.251Z,15.77
2022-12-23T12:13:28.461Z,14.60
2022-12-23T12:16:18.772Z,14.00
2022-12-23T12:18:52.030Z,12.83
2022-12-23T12:21:28.598Z,17.57
2022-12-23T12:24:17.944Z,13.90
2022-12-23T12:29:39.646Z,18.63
2022-12-23T12:32:21.881Z,15.70
2022-12-23T12:35:02.874Z,18.50
2022-12-23T12:37:41.500Z,19.00
2022-12-23T12:40:34.042Z,19.03
2022-12-23T12:43:12.696Z,18.03
2022-12-23T12:45:50.305Z,18.03
2022-12-23T12:48:32.243Z,20.53
2022-12-23T12:51:16.013Z,18.33
2022-12-23T12:54:05.198Z,16.10
2022-12-23T12:56:44.150Z,19.67
2022-12-23T12:59:24.340Z,18.30
2022-12-23T13:02:16.144Z,15.77
2022-12-23T13:05:03.579Z,13.27
2022-12-23T13:07:54.749Z,13.43
2022-12-23T13:10:47.525Z,12.37
2022-12-23T13:13:33.552Z,13.23
2022-12-23T13:16:24.887Z,13.83
2022-12-23T13:19:01.170Z,11.27
2022-12-23T13:21:33.614Z,11.43
2022-12-23T13:24:14.237Z,13.27
2022-12-23T13:27:03.097Z,14.53
2022-12-23T13:29:32.701Z,13.70
2022-12-23T13:32:41.175Z,13.02
2022-12-23T13:35:45.585Z,12.97
2022-12-23T13:38:59.708Z,11.30
2022-12-23T13:41:26.364Z,11.37
2022-12-23T13:44:07.450Z,11.97
2022-12-23T13:46:36.876Z,9.43
2022-12-23T13:49:23.718Z,12.75
2022-12-23T13:51:56.357Z,11.13
2022-12-23T13:54:51.674Z,9.03
2022-12-23T13:57:56.453Z,13.23
2022-12-23T14:00:25.041Z,21.17
2022-12-23T14:03:00.204Z,30.80
2022-12-23T14:05:32.308Z,35.90
2022-12-23T14:08:01.725Z,26.20
2022-12-23T14:10:29.090Z,17.23
2022-12-23T14:13:02.071Z,17.27
2022-12-23T14:15:31.635Z,20.27
2022-12-23T14:18:32.122Z,16.38
2022-12-23T14:21:08.050Z,15.80
2022-12-23T14:24:03.966Z,14.97
2022-12-23T14:26:51.061Z,16.60
2022-12-23T14:30:05.254Z,22.00
2022-12-23T14:32:43.213Z,15.23
2022-12-23T14:35:24.336Z,17.47
2022-12-23T14:38:15.622Z,17.47
2022-12-23T14:40:42.221Z,21.70
2022-12-23T14:43:27.627Z,18.50
2022-12-23T14:45:55.529Z,21.43
2022-12-23T14:48:34.116Z,22.23
2022-12-23T14:51:23.103Z,15.97
2022-12-23T14:53:53.732Z,16.53
2022-12-23T14:56:39.759Z,16.83
2022-12-23T14:59:28.956Z,15.63
2022-12-23T15:02:05.595Z,15.03
2022-12-23T15:04:46.259Z,14.93
2022-12-23T15:07:25.199Z,20.97
2022-12-23T15:10:01.300Z,15.90
2022-12-23T15:12:46.396Z,15.00
2022-12-23T15:15:17.830Z,15.40
2022-12-23T15:17:45.859Z,17.20
2022-12-23T15:20:25.701Z,19.07
2022-12-23T15:23:01.496Z,16.88
2022-12-23T15:25:33.875Z,16.10
2022-12-23T15:28:05.443Z,15.83
2022-12-23T15:30:47.606Z,17.90
2022-12-23T15:34:00.647Z,20.80
2022-12-23T15:36:12.156Z,19.90
2022-12-23T15:38:41.338Z,20.57
2022-12-23T15:41:17.540Z,22.48
2022-12-23T15:43:45.577Z,19.47
2022-12-23T15:46:25.101Z,24.83
2022-12-23T15:48:55.924Z,29.50
2022-12-23T15:52:05.881Z,18.87
2022-12-23T15:54:45.119Z,19.93
2022-12-23T15:57:18.805Z,20.47
2022-12-23T15:59:47.124Z,21.67
2022-12-23T16:02:58.931Z,23.47
2022-12-23T16:05:11.984Z,22.93
2022-12-23T16:07:43.295Z,22.57
2022-12-23T16:10:22.185Z,27.30
2022-12-23T16:12:54.871Z,36.10
2022-12-23T16:15:32.932Z,44.27
2022-12-23T16:18:19.370Z,38.03
2022-12-23T16:21:00.441Z,38.17
2022-12-23T16:23:35.364Z,26.13
2022-12-23T16:26:04.724Z,35.33
2022-12-23T16:28:45.390Z,39.65
2022-12-23T16:31:16.515Z,37.07
2022-12-23T16:34:01.867Z,33.13
2022-12-23T16:36:34.137Z,32.07
2022-12-23T16:39:22.610Z,35.87
2022-12-23T16:41:57.071Z,30.57
2022-12-23T16:44:24.520Z,27.27
2022-12-23T16:46:53.414Z,29.17
2022-12-23T16:49:28.012Z,23.23
2022-12-23T16:51:59.721Z,27.00
2022-12-23T16:54:26.301Z,28.03
2022-12-23T16:56:52.880Z,28.80
2022-12-23T16:59:20.819Z,33.83
2022-12-23T17:01:49.773Z,32.90
2022-12-23T17:04:19.155Z,27.23
2022-12-23T17:06:47.100Z,25.70
2022-12-23T17:09:15.597Z,28.17
2022-12-23T17:11:50.268Z,30.23
2022-12-23T17:14:23.878Z,29.07
2022-12-23T17:16:52.487Z,30.47
2022-12-23T17:19:27.732Z,31.80
2022-12-23T17:22:02.084Z,32.77
2022-12-23T17:24:31.306Z,30.13
2022-12-23T17:27:00.703Z,23.80
2022-12-23T17:29:29.876Z,25.10
2022-12-23T17:31:56.542Z,28.87
2022-12-23T17:34:24.331Z,26.03
2022-12-23T17:36:51.694Z,21.57
2022-12-23T17:39:20.438Z,20.77
2022-12-23T17:41:47.765Z,22.80
2022-12-23T17:44:16.478Z,22.13
2022-12-23T17:46:43.468Z,21.37
2022-12-23T17:49:11.685Z,18.50
2022-12-23T17:51:40.113Z,21.23
2022-12-23T17:54:06.753Z,19.20
2022-12-23T17:56:33.735Z,18.50
2022-12-23T17:59:00.370Z,24.70
2022-12-23T18:01:30.054Z,19.80
2022-12-23T18:03:58.905Z,19.48
2022-12-23T18:06:27.514Z,21.23
2022-12-23T18:08:54.260Z,18.37
2022-12-23T18:11:22.920Z,21.13
2022-12-23T18:13:52.226Z,22.37
2022-12-23T18:16:18.933Z,20.85
2022-12-23T18:18:47.039Z,23.33
2022-12-23T18:21:20.824Z,23.33
2022-12-23T18:23:47.616Z,20.10
2022-12-23T18:26:15.292Z,19.67
2022-12-23T18:28:43.372Z,17.43
2022-12-23T18:31:16.505Z,20.27
2022-12-23T18:33:43.722Z,17.00
2022-12-23T18:36:24.365Z,19.70
2022-12-23T18:38:52.264Z,21.43
2022-12-23T18:41:20.203Z,16.97
2022-12-23T18:43:47.520Z,19.83
2022-12-23T18:46:14.931Z,21.67
2022-12-23T18:48:41.728Z,19.10
2022-12-23T18:51:14.860Z,20.10
2022-12-23T18:53:41.743Z,20.93
2022-12-23T18:56:13.800Z,19.37
2022-12-23T18:58:40.514Z,19.90
2022-12-23T19:01:14.824Z,18.43
2022-12-23T19:03:45.287Z,20.43
2022-12-23T19:06:16.200Z,22.43
2022-12-23T19:08:43.904Z,21.63
2022-12-23T19:11:16.495Z,22.13
2022-12-23T19:13:43.479Z,22.60
2022-12-23T19:16:16.103Z,20.53
2022-12-23T19:18:43.058Z,20.53
2022-12-23T19:21:09.691Z,28.37
2022-12-23T19:23:37.201Z,31.10
2022-12-23T19:26:06.070Z,28.60
2022-12-23T19:28:38.102Z,27.50
2022-12-23T19:31:10.385Z,27.50
2022-12-23T19:33:38.650Z,23.27
2022-12-23T19:36:10.252Z,22.70
2022-12-23T19:38:37.163Z,24.67
2022-12-23T19:41:04.514Z,21.17
2022-12-23T19:43:31.114Z,21.83
2022-12-23T19:46:02.191Z,24.20
2022-12-23T19:48:29.916Z,19.43
2022-12-23T19:51:22.807Z,24.90
2022-12-23T19:53:54.339Z,22.03
2022-12-23T19:56:21.667Z,19.77
2022-12-23T19:58:50.901Z,20.90
2022-12-23T20:01:25.235Z,20.48
2022-12-23T20:03:53.787Z,21.73
2022-12-23T20:06:23.752Z,21.43
2022-12-23T20:08:56.375Z,25.67
2022-12-23T20:11:26.664Z,28.50
2022-12-23T20:13:54.333Z,40.53
2022-12-23T20:16:21.851Z,32.97
2022-12-23T20:18:48.829Z,38.53
2022-12-23T20:21:15.650Z,35.93
2022-12-23T20:23:43.002Z,33.57
2022-12-23T20:26:12.539Z,32.63
2022-12-23T20:28:39.262Z,29.35
2022-12-23T20:31:09.301Z,29.63
2022-12-23T20:36:06.997Z,24.98
2022-12-23T20:38:34.877Z,20.77
2022-12-23T20:41:03.229Z,20.40
2022-12-23T20:43:29.783Z,18.37
2022-12-23T20:45:56.629Z,19.17
2022-12-23T20:48:25.875Z,16.97
2022-12-23T20:50:56.776Z,17.57
2022-12-23T20:53:23.661Z,20.77
2022-12-23T20:55:50.325Z,21.00
2022-12-23T20:58:35.769Z,19.67
2022-12-23T21:01:10.284Z,17.33
2022-12-23T21:03:37.015Z,14.47
2022-12-23T21:06:04.774Z,13.27
2022-12-23T21:08:31.468Z,13.20
2022-12-23T21:10:58.674Z,13.33
2022-12-23T21:13:25.473Z,12.77
2022-12-23T21:15:53.326Z,16.23
2022-12-23T21:18:19.944Z,11.43
2022-12-23T21:20:46.529Z,13.93
2022-12-23T21:23:13.120Z,21.37
2022-12-23T21:25:39.675Z,21.87
2022-12-23T21:28:06.248Z,16.13
2022-12-23T21:30:34.086Z,15.37
2022-12-23T21:33:02.531Z,12.57
2022-12-23T21:35:29.254Z,14.00
2022-12-23T21:37:56.189Z,13.87
2022-12-23T21:40:22.809Z,14.17
2022-12-23T21:42:49.585Z,12.73
2022-12-23T21:45:16.128Z,11.77
2022-12-23T21:47:42.719Z,12.47
2022-12-23T21:50:09.675Z,13.53
2022-12-23T21:52:36.211Z,18.20
2022-12-23T21:55:02.833Z,16.17
2022-12-23T21:57:29.727Z,23.10
2022-12-23T21:59:56.384Z,17.20
2022-12-23T22:02:23.069Z,17.93
2022-12-23T22:04:49.756Z,25.10
2022-12-23T22:07:16.336Z,32.93
2022-12-23T22:09:42.962Z,31.40
2022-12-23T22:12:09.505Z,28.97
2022-12-23T22:14:36.112Z,38.60
2022-12-23T22:17:02.816Z,28.13
2022-12-23T22:19:29.524Z,27.43
2022-12-23T22:21:56.112Z,21.53
2022-12-23T22:24:22.941Z,25.30
2022-12-23T22:26:49.921Z,29.43
2022-12-23T22:29:16.861Z,20.90
2022-12-23T22:31:49.868Z,25.43
2022-12-23T22:34:19.373Z,29.70
2022-12-23T22:36:46.976Z,23.45
2022-12-23T22:39:20.086Z,24.00
2022-12-23T22:41:48.197Z,19.97
2022-12-23T22:44:15.466Z,20.70
2022-12-23T22:46:42.614Z,16.53
2022-12-23T22:49:13.598Z,14.97
2022-12-23T22:51:41.894Z,16.07
2022-12-23T22:54:09.088Z,13.77
2022-12-23T22:56:35.728Z,15.90
2022-12-23T22:59:02.429Z,14.37
2022-12-23T23:01:32.918Z,14.07
2022-12-23T23:04:02.163Z,14.33
2022-12-23T23:06:31.534Z,20.03
2022-12-23T23:08:58.402Z,20.58
2022-12-23T23:11:26.380Z,21.73
2022-12-23T23:13:53.851Z,19.90
2022-12-23T23:16:20.864Z,20.03
2022-12-23T23:18:47.520Z,16.80
2022-12-23T23:21:14.987Z,19.33
2022-12-23T23:23:41.789Z,17.53
2022-12-23T23:26:10.253Z,15.93
2022-12-23T23:28:39.380Z,17.67
2022-12-23T23:31:39.914Z,15.27
2022-12-23T23:33:55.509Z,17.33
2022-12-23T23:36:22.168Z,23.00
2022-12-23T23:38:48.744Z,23.53
2022-12-23T23:41:22.242Z,25.30
2022-12-23T23:43:49.712Z,17.90
2022-12-23T23:46:16.485Z,20.57
2022-12-23T23:48:43.173Z,15.63
2022-12-23T23:51:09.869Z,21.27
2022-12-23T23:53:36.435Z,19.17
2022-12-23T23:56:06.263Z,16.50
2022-12-23T23:58:33.652Z,17.35
